createdAt,value
2023-03-19T00:02:30.971Z,8.01
2023-03-19T00:05:05.492Z,7.98
2023-03-19T00:07:39.481Z,7.96
2023-03-19T00:10:13.996Z,7.94
2023-03-19T00:12:47.731Z,7.93
2023-03-19T00:15:21.489Z,7.92
2023-03-19T00:17:56.921Z,7.92
2023-03-19T00:20:30.886Z,7.91
2023-03-19T00:23:04.393Z,7.88
2023-03-19T00:25:38.048Z,7.85
2023-03-19T00:28:12.393Z,7.84
2023-03-19T00:30:47.088Z,7.84
2023-03-19T00:33:20.739Z,7.81
2023-03-19T00:35:55.372Z,7.77
2023-03-19T00:38:29.559Z,7.72
2023-03-19T00:41:02.855Z,7.68
2023-03-19T00:43:38.001Z,7.65
2023-03-19T00:46:11.763Z,7.61
2023-03-19T00:48:45.501Z,7.59
2023-03-19T00:51:19.264Z,7.55
2023-03-19T00:53:54.379Z,7.50
2023-03-19T00:56:28.003Z,7.45
2023-03-19T00:59:01.734Z,7.41
2023-03-19T01:01:35.394Z,7.38
2023-03-19T01:04:09.746Z,7.35
2023-03-19T01:06:43.619Z,7.31
2023-03-19T01:09:17.556Z,7.28
2023-03-19T01:11:51.669Z,7.24
2023-03-19T01:14:25.379Z,7.21
2023-03-19T01:16:59.260Z,7.19
2023-03-19T01:19:33.016Z,7.16
2023-03-19T01:22:06.690Z,7.12
2023-03-19T01:24:41.273Z,7.10
2023-03-19T01:27:15.292Z,7.09
2023-03-19T01:29:48.917Z,7.07
2023-03-19T01:32:29.893Z,7.04
2023-03-19T01:35:42.997Z,7.02
2023-03-19T01:38:16.903Z,7.00
2023-03-19T01:40:52.566Z,7.00
2023-03-19T01:43:28.341Z,6.99
2023-03-19T01:46:25.293Z,6.95
2023-03-19T01:49:20.381Z,6.93
2023-03-19T01:52:01.309Z,6.91
2023-03-19T01:54:39.809Z,6.88
2023-03-19T01:57:24.613Z,6.87
2023-03-19T02:00:20.676Z,6.83
2023-03-19T02:03:01.177Z,6.80
2023-03-19T02:05:59.651Z,6.78
2023-03-19T02:08:34.194Z,6.76
2023-03-19T02:11:09.069Z,6.72
2023-03-19T02:13:43.095Z,6.71
2023-03-19T02:16:17.175Z,6.71
2023-03-19T02:18:53.829Z,6.70
2023-03-19T02:21:27.630Z,6.69
2023-03-19T02:24:09.644Z,6.67
2023-03-19T02:26:53.137Z,6.65
2023-03-19T02:29:26.866Z,6.62
2023-03-19T02:32:00.914Z,6.60
2023-03-19T02:34:44.618Z,6.59
2023-03-19T02:37:24.469Z,6.61
2023-03-19T02:40:04.867Z,6.62
2023-03-19T02:42:38.766Z,6.63
2023-03-19T02:45:13.793Z,6.60
2023-03-19T02:47:47.195Z,6.58
2023-03-19T02:50:21.047Z,6.55
2023-03-19T02:52:55.932Z,6.51
2023-03-19T02:55:29.385Z,6.49
2023-03-19T02:58:03.611Z,6.45
2023-03-19T03:00:37.739Z,6.41
2023-03-19T03:03:12.115Z,6.40
2023-03-19T03:05:46.595Z,6.38
2023-03-19T03:08:20.977Z,6.36
2023-03-19T03:10:54.807Z,6.34
2023-03-19T03:13:28.762Z,6.31
2023-03-19T03:16:03.614Z,6.30
2023-03-19T03:18:38.010Z,6.28
2023-03-19T03:21:12.061Z,6.27
2023-03-19T03:23:45.649Z,6.27
2023-03-19T03:26:19.334Z,6.27
2023-03-19T03:28:53.268Z,6.26
2023-03-19T03:31:27.497Z,6.25
2023-03-19T03:34:01.153Z,6.24
2023-03-19T03:36:35.233Z,6.23
2023-03-19T03:39:09.543Z,6.25
2023-03-19T03:41:43.043Z,6.27
2023-03-19T03:44:16.879Z,6.27
2023-03-19T03:46:51.296Z,6.25
2023-03-19T03:49:26.030Z,6.21
2023-03-19T03:52:00.001Z,6.17
2023-03-19T03:54:33.997Z,6.13
2023-03-19T03:57:08.413Z,6.12
2023-03-19T03:59:42.956Z,6.11
2023-03-19T04:02:17.122Z,6.08
2023-03-19T04:04:51.038Z,6.07
2023-03-19T04:07:24.999Z,6.04
2023-03-19T04:10:02.595Z,6.01
2023-03-19T04:12:38.104Z,5.98
2023-03-19T04:15:14.807Z,5.97
2023-03-19T04:17:50.951Z,5.94
2023-03-19T04:20:26.015Z,5.93
2023-03-19T04:22:59.632Z,5.94
2023-03-19T04:25:33.155Z,5.94
2023-03-19T04:28:07.488Z,5.95
2023-03-19T04:30:42.089Z,5.94
2023-03-19T04:33:16.215Z,5.93
2023-03-19T04:35:50.057Z,5.90
2023-03-19T04:38:23.870Z,5.86
2023-03-19T04:40:57.876Z,5.82
2023-03-19T04:43:31.385Z,5.78
2023-03-19T04:46:08.368Z,5.73
2023-03-19T04:48:42.520Z,5.71
2023-03-19T04:51:17.202Z,5.68
2023-03-19T04:53:51.233Z,5.65
2023-03-19T04:56:25.126Z,5.63
2023-03-19T04:58:58.748Z,5.64
2023-03-19T05:01:33.349Z,5.63
2023-03-19T05:04:15.425Z,5.62
2023-03-19T05:06:49.016Z,5.62
2023-03-19T05:09:22.676Z,5.63
2023-03-19T05:11:56.894Z,5.62
2023-03-19T05:14:30.779Z,5.63
2023-03-19T05:17:33.898Z,5.61
2023-03-19T05:20:19.955Z,5.59
2023-03-19T05:22:59.033Z,5.60
2023-03-19T05:25:43.178Z,5.60
2023-03-19T05:28:18.741Z,5.64
2023-03-19T05:30:53.080Z,5.67
2023-03-19T05:33:32.627Z,5.74
2023-03-19T05:36:08.199Z,5.97
2023-03-19T05:38:56.598Z,6.15
2023-03-19T05:41:34.190Z,6.38
2023-03-19T05:44:10.797Z,6.87
2023-03-19T05:46:51.133Z,7.78
2023-03-19T05:49:25.674Z,8.85
2023-03-19T05:51:59.062Z,9.57
2023-03-19T05:54:32.738Z,9.80
2023-03-19T05:57:14.899Z,10.17
2023-03-19T06:00:02.055Z,10.66
2023-03-19T06:02:42.283Z,11.25
2023-03-19T06:05:36.303Z,11.52
2023-03-19T06:08:24.896Z,11.48
2023-03-19T06:11:05.659Z,11.79
2023-03-19T06:13:39.890Z,11.84
2023-03-19T06:16:14.979Z,11.80
2023-03-19T06:18:54.991Z,12.03
2023-03-19T06:21:30.794Z,11.97
2023-03-19T06:24:08.308Z,11.64
2023-03-19T06:26:42.874Z,11.27
2023-03-19T06:29:21.762Z,11.20
2023-03-19T06:31:59.160Z,11.48
2023-03-19T06:34:44.788Z,12.33
2023-03-19T06:37:19.272Z,13.72
2023-03-19T06:39:55.004Z,15.25
2023-03-19T06:42:28.936Z,17.13
2023-03-19T06:45:02.843Z,18.50
2023-03-19T06:47:36.749Z,19.78
2023-03-19T06:50:12.685Z,20.88
2023-03-19T06:52:47.001Z,21.90
2023-03-19T06:55:21.326Z,22.75
2023-03-19T06:57:55.249Z,23.26
2023-03-19T07:00:29.602Z,23.28
2023-03-19T07:03:02.929Z,23.20
2023-03-19T07:05:36.763Z,22.79
2023-03-19T07:08:12.292Z,22.65
2023-03-19T07:10:46.069Z,22.41
2023-03-19T07:13:19.972Z,21.82
2023-03-19T07:15:53.584Z,21.13
2023-03-19T07:18:27.485Z,20.81
2023-03-19T07:21:00.879Z,21.17
2023-03-19T07:23:34.952Z,21.77
2023-03-19T07:26:08.999Z,22.29
2023-03-19T07:28:42.594Z,23.28
2023-03-19T07:31:17.329Z,24.45
2023-03-19T07:33:50.917Z,24.51
2023-03-19T07:36:24.900Z,24.50
2023-03-19T07:38:59.422Z,25.27
2023-03-19T07:41:33.686Z,25.94
2023-03-19T07:44:07.382Z,26.88
2023-03-19T07:46:41.204Z,27.88
2023-03-19T07:49:14.677Z,28.50
2023-03-19T07:51:48.661Z,28.07
2023-03-19T07:54:23.878Z,27.47
2023-03-19T07:56:57.218Z,27.41
2023-03-19T07:59:31.100Z,27.13
2023-03-19T08:02:04.765Z,26.08
2023-03-19T08:04:38.665Z,26.24
2023-03-19T08:07:13.122Z,26.65
2023-03-19T08:09:47.171Z,27.16
2023-03-19T08:12:20.778Z,28.26
2023-03-19T08:14:55.007Z,29.03
2023-03-19T08:17:28.918Z,28.83
2023-03-19T08:20:02.614Z,28.77
2023-03-19T08:22:36.389Z,28.57
2023-03-19T08:25:12.353Z,27.94
2023-03-19T08:27:45.984Z,27.21
2023-03-19T08:30:20.365Z,26.38
2023-03-19T08:32:54.459Z,25.54
2023-03-19T08:35:28.550Z,24.63
2023-03-19T08:38:02.589Z,23.79
2023-03-19T08:40:37.142Z,23.24
2023-03-19T08:43:10.990Z,22.99
2023-03-19T08:45:44.582Z,23.32
2023-03-19T08:48:18.546Z,23.73
2023-03-19T08:50:56.973Z,23.91
2023-03-19T08:53:31.484Z,23.81
2023-03-19T08:56:06.788Z,23.86
2023-03-19T08:58:42.491Z,23.94
2023-03-19T09:01:17.093Z,24.10
2023-03-19T09:03:51.059Z,24.32
2023-03-19T09:06:25.726Z,24.44
2023-03-19T09:08:59.321Z,24.39
2023-03-19T09:11:33.124Z,24.14
2023-03-19T09:14:07.543Z,23.82
2023-03-19T09:16:41.364Z,23.23
2023-03-19T09:19:14.813Z,22.64
2023-03-19T09:21:48.822Z,22.54
2023-03-19T09:24:22.985Z,22.94
2023-03-19T09:26:56.997Z,23.58
2023-03-19T09:29:30.648Z,24.13
2023-03-19T09:32:04.462Z,24.65
2023-03-19T09:34:38.118Z,24.75
2023-03-19T09:37:12.286Z,24.14
2023-03-19T09:39:46.804Z,23.44
2023-03-19T09:42:43.377Z,22.88
2023-03-19T09:45:18.832Z,22.22
2023-03-19T09:47:57.319Z,21.72
2023-03-19T09:50:34.990Z,21.60
2023-03-19T09:53:16.687Z,21.59
2023-03-19T09:55:53.141Z,21.84
2023-03-19T09:58:33.307Z,22.28
2023-03-19T10:01:08.111Z,22.90
2023-03-19T10:03:58.462Z,23.42
2023-03-19T10:06:36.111Z,24.08
2023-03-19T10:09:37.190Z,24.48
2023-03-19T10:12:25.448Z,24.54
2023-03-19T10:15:24.010Z,24.52
2023-03-19T10:18:05.048Z,24.21
2023-03-19T10:20:47.449Z,23.63
2023-03-19T10:23:39.074Z,22.97
2023-03-19T10:26:17.968Z,22.42
2023-03-19T10:28:59.981Z,22.20
2023-03-19T10:31:45.603Z,21.96
2023-03-19T10:34:36.680Z,21.58
2023-03-19T10:37:20.905Z,21.13
2023-03-19T10:39:58.010Z,21.05
2023-03-19T10:42:50.183Z,21.30
2023-03-19T10:45:30.649Z,22.04
2023-03-19T10:48:06.019Z,23.38
2023-03-19T10:50:48.202Z,24.52
2023-03-19T10:53:35.297Z,24.92
2023-03-19T10:56:19.229Z,25.73
2023-03-19T10:59:03.419Z,27.30
2023-03-19T11:01:40.919Z,28.32
2023-03-19T11:04:19.514Z,28.36
2023-03-19T11:06:55.029Z,28.63
2023-03-19T11:09:36.283Z,28.99
2023-03-19T11:12:23.451Z,29.27
2023-03-19T11:14:58.981Z,29.02
2023-03-19T11:17:42.052Z,29.03
2023-03-19T11:20:29.003Z,29.04
2023-03-19T11:23:04.611Z,28.55
2023-03-19T11:25:41.157Z,28.54
2023-03-19T11:28:20.480Z,28.68
2023-03-19T11:31:04.148Z,28.53
2023-03-19T11:33:58.094Z,28.59
2023-03-19T11:36:36.019Z,28.11
2023-03-19T11:39:23.836Z,26.96
2023-03-19T11:42:27.235Z,26.14
2023-03-19T11:45:12.033Z,25.70
2023-03-19T11:47:54.089Z,25.18
2023-03-19T11:50:35.413Z,24.63
2023-03-19T11:53:22.860Z,24.36
2023-03-19T11:56:04.523Z,24.56
2023-03-19T11:59:05.831Z,24.71
2023-03-19T12:01:58.206Z,24.59
2023-03-19T12:04:51.389Z,24.94
2023-03-19T12:07:33.745Z,25.31
2023-03-19T12:10:28.273Z,25.10
2023-03-19T12:13:18.246Z,24.16
2023-03-19T12:16:03.792Z,23.35
2023-03-19T12:19:00.018Z,23.09
2023-03-19T12:21:43.059Z,22.67
2023-03-19T12:24:28.859Z,22.23
2023-03-19T12:27:22.206Z,22.38
2023-03-19T12:30:02.378Z,22.57
2023-03-19T12:32:56.016Z,22.49
2023-03-19T12:35:36.001Z,22.57
2023-03-19T12:38:15.765Z,22.87
2023-03-19T12:40:54.192Z,23.13
2023-03-19T12:43:34.211Z,23.23
2023-03-19T12:46:14.243Z,23.21
2023-03-19T12:48:54.095Z,22.78
2023-03-19T12:51:30.596Z,22.46
2023-03-19T12:54:08.095Z,22.53
2023-03-19T12:56:48.705Z,22.55
2023-03-19T12:59:31.306Z,22.53
2023-03-19T13:02:14.064Z,22.45
2023-03-19T13:04:55.133Z,22.36
2023-03-19T13:07:35.984Z,22.12
2023-03-19T13:10:15.833Z,21.96
2023-03-19T13:12:51.050Z,21.72
2023-03-19T13:15:30.606Z,21.43
2023-03-19T13:18:17.035Z,21.60
2023-03-19T13:21:06.342Z,22.13
2023-03-19T13:23:44.428Z,22.73
2023-03-19T13:26:19.837Z,22.74
2023-03-19T13:29:10.633Z,22.84
2023-03-19T13:31:44.691Z,22.92
2023-03-19T13:34:29.441Z,22.75
2023-03-19T13:37:14.072Z,22.30
2023-03-19T13:39:50.001Z,21.62
2023-03-19T13:42:39.926Z,21.09
2023-03-19T13:45:36.289Z,20.67
2023-03-19T13:48:40.547Z,20.20
2023-03-19T13:51:31.036Z,19.70
2023-03-19T13:54:18.260Z,19.36
2023-03-19T13:57:19.969Z,19.15
2023-03-19T13:59:54.471Z,19.01
2023-03-19T14:02:51.025Z,18.89
2023-03-19T14:05:26.367Z,18.80
2023-03-19T14:07:59.918Z,18.64
2023-03-19T14:10:35.110Z,18.40
2023-03-19T14:13:20.515Z,18.25
2023-03-19T14:16:02.297Z,18.17
2023-03-19T14:18:40.598Z,18.14
2023-03-19T14:21:22.132Z,18.09
2023-03-19T14:24:52.229Z,18.07
2023-03-19T14:27:20.250Z,18.06
2023-03-19T14:29:57.962Z,18.03
2023-03-19T14:32:41.935Z,17.93
2023-03-19T14:35:21.099Z,17.87
2023-03-19T14:37:58.460Z,17.82
2023-03-19T14:40:42.476Z,17.74
2023-03-19T14:43:29.373Z,17.65
2023-03-19T14:46:05.145Z,17.51
2023-03-19T14:49:11.622Z,17.40
2023-03-19T14:52:01.003Z,17.32
2023-03-19T14:54:43.091Z,17.29
2023-03-19T14:57:22.261Z,17.27
2023-03-19T14:59:56.720Z,17.28
2023-03-19T15:02:43.284Z,17.30
2023-03-19T15:05:25.083Z,17.31
2023-03-19T15:08:04.687Z,17.33
2023-03-19T15:10:50.233Z,17.35
2023-03-19T15:13:37.906Z,17.30
2023-03-19T15:16:30.605Z,17.24
2023-03-19T15:19:10.436Z,17.17
2023-03-19T15:21:44.789Z,17.12
2023-03-19T15:24:20.818Z,17.06
2023-03-19T15:26:56.198Z,16.98
2023-03-19T15:29:38.507Z,16.93
2023-03-19T15:32:49.700Z,16.85
2023-03-19T15:35:35.402Z,16.78
2023-03-19T15:38:15.283Z,16.76
2023-03-19T15:40:51.964Z,16.77
2023-03-19T15:43:30.161Z,16.76
2023-03-19T15:46:04.456Z,16.74
2023-03-19T15:48:45.364Z,16.70
2023-03-19T15:51:21.689Z,16.67
2023-03-19T15:54:01.285Z,16.63
2023-03-19T15:56:37.723Z,16.59
2023-03-19T15:59:15.189Z,16.55
2023-03-19T16:01:53.481Z,16.49
2023-03-19T16:04:32.067Z,16.43
2023-03-19T16:07:24.355Z,16.38
2023-03-19T16:10:00.769Z,16.31
2023-03-19T16:12:42.520Z,16.25
2023-03-19T16:15:35.650Z,16.19
2023-03-19T16:18:33.484Z,16.13
2023-03-19T16:21:22.226Z,16.07
2023-03-19T16:24:02.142Z,16.00
2023-03-19T16:26:44.705Z,15.93
2023-03-19T16:29:30.425Z,15.85
2023-03-19T16:32:20.385Z,15.76
2023-03-19T16:34:59.897Z,15.66
2023-03-19T16:37:46.095Z,15.56
2023-03-19T16:40:49.864Z,15.44
2023-03-19T16:43:39.383Z,15.32
2023-03-19T16:46:17.026Z,15.21
2023-03-19T16:48:53.890Z,15.11
2023-03-19T16:51:32.755Z,15.01
2023-03-19T16:54:13.176Z,14.92
2023-03-19T16:56:51.018Z,14.82
2023-03-19T16:59:34.439Z,14.71
2023-03-19T17:02:19.972Z,14.61
2023-03-19T17:05:00.651Z,14.51
2023-03-19T17:07:43.309Z,14.42
2023-03-19T17:10:23.393Z,14.31
2023-03-19T17:13:00.631Z,14.22
2023-03-19T17:15:44.951Z,14.14
2023-03-19T17:18:27.074Z,14.06
2023-03-19T17:21:09.521Z,13.98
2023-03-19T17:23:46.269Z,13.89
2023-03-19T17:26:32.997Z,13.81
2023-03-19T17:29:11.110Z,13.73
2023-03-19T17:31:48.255Z,13.67
2023-03-19T17:34:34.068Z,13.61
2023-03-19T17:37:19.956Z,13.54
2023-03-19T17:40:15.500Z,13.45
2023-03-19T17:42:54.602Z,13.38
2023-03-19T17:45:31.193Z,13.31
2023-03-19T17:48:09.798Z,13.22
2023-03-19T17:50:49.603Z,13.16
2023-03-19T17:53:27.758Z,13.13
2023-03-19T17:56:07.842Z,13.10
2023-03-19T17:58:47.175Z,13.07
2023-03-19T18:01:30.978Z,13.03
2023-03-19T18:04:14.696Z,12.98
2023-03-19T18:06:56.343Z,12.92
2023-03-19T18:09:35.105Z,12.87
2023-03-19T18:12:12.873Z,12.83
2023-03-19T18:14:52.521Z,12.80
2023-03-19T18:17:40.505Z,12.77
2023-03-19T18:20:21.747Z,12.73
2023-03-19T18:23:01.952Z,12.71
2023-03-19T18:25:41.159Z,12.66
2023-03-19T18:28:17.520Z,12.61
2023-03-19T18:30:56.086Z,12.59
2023-03-19T18:33:30.702Z,12.55
2023-03-19T18:36:14.085Z,12.49
2023-03-19T18:38:55.516Z,12.42
2023-03-19T18:41:41.000Z,12.36
2023-03-19T18:44:19.699Z,12.32
2023-03-19T18:46:56.428Z,12.27
2023-03-19T18:49:34.056Z,12.20
2023-03-19T18:52:13.070Z,12.16
2023-03-19T18:54:50.808Z,12.15
2023-03-19T18:57:36.752Z,12.11
2023-03-19T19:00:25.948Z,12.04
2023-03-19T19:03:05.420Z,12.02
2023-03-19T19:05:42.354Z,11.99
2023-03-19T19:08:27.867Z,11.95
2023-03-19T19:11:06.602Z,11.88
2023-03-19T19:13:55.453Z,11.87
2023-03-19T19:16:42.663Z,11.87
2023-03-19T19:19:23.041Z,11.85
2023-03-19T19:22:00.799Z,11.83
2023-03-19T19:24:36.657Z,11.81
2023-03-19T19:27:25.146Z,11.79
2023-03-19T19:30:01.277Z,11.76
2023-03-19T19:32:41.742Z,11.72
2023-03-19T19:35:27.599Z,11.69
2023-03-19T19:38:05.202Z,11.67
2023-03-19T19:40:41.624Z,11.64
2023-03-19T19:43:24.948Z,11.58
2023-03-19T19:46:04.721Z,11.54
2023-03-19T19:48:46.771Z,11.51
2023-03-19T19:51:26.286Z,11.47
2023-03-19T19:54:03.906Z,11.45
2023-03-19T19:56:43.484Z,11.43
2023-03-19T19:59:20.877Z,11.39
2023-03-19T20:01:56.803Z,11.35
2023-03-19T20:04:33.656Z,11.33
2023-03-19T20:07:10.913Z,11.26
2023-03-19T20:09:47.717Z,11.19
2023-03-19T20:12:39.969Z,11.13
2023-03-19T20:15:34.239Z,11.05
2023-03-19T20:18:18.708Z,10.99
2023-03-19T20:21:02.451Z,10.94
2023-03-19T20:23:40.388Z,10.90
2023-03-19T20:26:20.319Z,10.85
2023-03-19T20:28:57.388Z,10.80
2023-03-19T20:31:35.398Z,10.75
2023-03-19T20:34:25.527Z,10.69
2023-03-19T20:37:14.707Z,10.63
2023-03-19T20:39:54.220Z,10.56
2023-03-19T20:42:36.593Z,10.50
2023-03-19T20:45:21.504Z,10.42
2023-03-19T20:48:00.904Z,10.37
2023-03-19T20:50:48.648Z,10.33
2023-03-19T20:53:25.915Z,10.28
2023-03-19T20:56:04.944Z,10.20
2023-03-19T20:58:46.273Z,10.14
2023-03-19T21:01:23.784Z,10.10
2023-03-19T21:04:01.696Z,10.04
2023-03-19T21:06:52.070Z,9.97
2023-03-19T21:09:30.707Z,9.91
2023-03-19T21:12:18.223Z,9.87
2023-03-19T21:14:58.873Z,9.85
2023-03-19T21:17:34.836Z,9.80
2023-03-19T21:20:18.382Z,9.77
2023-03-19T21:22:56.613Z,9.74
2023-03-19T21:25:39.648Z,9.70
2023-03-19T21:28:22.101Z,9.65
2023-03-19T21:31:02.484Z,9.63
2023-03-19T21:33:38.418Z,9.60
2023-03-19T21:36:15.814Z,9.57
2023-03-19T21:38:51.287Z,9.56
2023-03-19T21:41:31.067Z,9.53
2023-03-19T21:44:07.981Z,9.47
2023-03-19T21:46:43.152Z,9.43
2023-03-19T21:49:18.247Z,9.38
2023-03-19T21:51:52.672Z,9.33
2023-03-19T21:54:26.405Z,9.30
2023-03-19T21:56:59.994Z,9.28
2023-03-19T21:59:35.634Z,9.24
2023-03-19T22:02:37.242Z,9.19
2023-03-19T22:05:19.070Z,9.17
2023-03-19T22:07:53.163Z,9.14
2023-03-19T22:10:30.497Z,9.11
2023-03-19T22:13:04.865Z,9.10
2023-03-19T22:15:40.077Z,9.10
2023-03-19T22:18:19.124Z,9.11
2023-03-19T22:20:53.302Z,9.14
2023-03-19T22:23:26.641Z,9.17
2023-03-19T22:26:00.072Z,9.20
2023-03-19T22:28:36.206Z,9.22
2023-03-19T22:31:10.548Z,9.23
2023-03-19T22:33:44.301Z,9.25
2023-03-19T22:36:18.142Z,9.28
2023-03-19T22:38:52.162Z,9.28
2023-03-19T22:41:32.332Z,9.27
2023-03-19T22:44:08.527Z,9.26
2023-03-19T22:46:42.231Z,9.25
2023-03-19T22:49:19.049Z,9.23
2023-03-19T22:51:52.481Z,9.20
2023-03-19T22:54:26.387Z,9.17
2023-03-19T22:57:00.106Z,9.14
2023-03-19T22:59:33.838Z,9.12
2023-03-19T23:02:07.704Z,9.10
2023-03-19T23:04:42.167Z,9.07
2023-03-19T23:07:16.251Z,9.04
2023-03-19T23:09:50.101Z,9.02
2023-03-19T23:12:23.710Z,9.01
2023-03-19T23:14:57.389Z,8.98
2023-03-19T23:17:31.257Z,8.99
2023-03-19T23:20:13.166Z,9.01
2023-03-19T23:22:47.254Z,9.04
2023-03-19T23:25:29.388Z,9.08
2023-03-19T23:28:04.309Z,9.11
2023-03-19T23:30:41.762Z,9.13
2023-03-19T23:33:17.500Z,9.15
2023-03-19T23:35:51.095Z,9.16
2023-03-19T23:38:24.928Z,9.15
2023-03-19T23:40:58.747Z,9.15
2023-03-19T23:43:33.802Z,9.14
2023-03-19T23:46:11.429Z,9.12
2023-03-19T23:48:45.220Z,9.09
2023-03-19T23:51:19.361Z,9.06
2023-03-19T23:53:52.943Z,9.01
2023-03-19T23:56:28.105Z,8.97
2023-03-19T23:59:01.575Z,8.92
